sensor_id;sensor_type;location;lat;lon;timestamp;P1;durP1;ratioP1;P2;durP2;ratioP2
75935;SDS011;64614;32.062;34.834;2024-03-02T00:00:23;3.72;;;2.00;;
75935;SDS011;64614;32.062;34.834;2024-03-02T00:02:50;4.40;;;2.10;;
75935;SDS011;64614;32.062;34.834;2024-03-02T00:05:19;5.07;;;2.15;;
75935;SDS011;64614;32.062;34.834;2024-03-02T00:07:59;4.05;;;2.08;;
75935;SDS011;64614;32.062;34.834;2024-03-02T00:10:25;5.75;;;1.98;;
75935;SDS011;64614;32.062;34.834;2024-03-02T00:12:56;5.55;;;2.20;;
75935;SDS011;64614;32.062;34.834;2024-03-02T00:18:10;4.43;;;2.10;;
75935;SDS011;64614;32.062;34.834;2024-03-02T00:20:38;4.60;;;1.80;;
75935;SDS011;64614;32.062;34.834;2024-03-02T00:23:07;3.80;;;1.80;;
75935;SDS011;64614;32.062;34.834;2024-03-02T00:25:38;4.10;;;2.17;;
75935;SDS011;64614;32.062;34.834;2024-03-02T00:36:02;4.95;;;2.05;;
75935;SDS011;64614;32.062;34.834;2024-03-02T00:38:33;4.32;;;2.05;;
75935;SDS011;64614;32.062;34.834;2024-03-02T00:41:06;4.20;;;2.20;;
75935;SDS011;64614;32.062;34.834;2024-03-02T00:43:39;5.25;;;2.00;;
75935;SDS011;64614;32.062;34.834;2024-03-02T00:46:09;3.40;;;1.90;;
75935;SDS011;64614;32.062;34.834;2024-03-02T00:48:36;5.07;;;1.90;;
75935;SDS011;64614;32.062;34.834;2024-03-02T00:51:05;4.35;;;2.13;;
75935;SDS011;64614;32.062;34.834;2024-03-02T00:53:31;4.68;;;2.20;;
75935;SDS011;64614;32.062;34.834;2024-03-02T00:55:58;4.78;;;1.95;;
75935;SDS011;64614;32.062;34.834;2024-03-02T00:58:24;5.03;;;2.00;;
75935;SDS011;64614;32.062;34.834;2024-03-02T01:00:50;5.03;;;2.33;;
75935;SDS011;64614;32.062;34.834;2024-03-02T01:03:16;4.90;;;2.47;;
75935;SDS011;64614;32.062;34.834;2024-03-02T01:05:42;4.22;;;1.80;;
75935;SDS011;64614;32.062;34.834;2024-03-02T01:08:08;4.57;;;2.30;;
75935;SDS011;64614;32.062;34.834;2024-03-02T01:10:35;3.97;;;2.10;;
75935;SDS011;64614;32.062;34.834;2024-03-02T01:13:00;5.13;;;2.08;;
75935;SDS011;64614;32.062;34.834;2024-03-02T01:15:26;5.15;;;2.10;;
75935;SDS011;64614;32.062;34.834;2024-03-02T01:17:52;6.30;;;2.30;;
75935;SDS011;64614;32.062;34.834;2024-03-02T01:20:18;5.25;;;2.20;;
75935;SDS011;64614;32.062;34.834;2024-03-02T01:22:45;5.72;;;2.15;;
75935;SDS011;64614;32.062;34.834;2024-03-02T01:25:10;5.30;;;1.98;;
75935;SDS011;64614;32.062;34.834;2024-03-02T01:27:36;4.63;;;2.20;;
75935;SDS011;64614;32.062;34.834;2024-03-02T01:30:02;6.38;;;2.25;;
75935;SDS011;64614;32.062;34.834;2024-03-02T01:32:28;6.65;;;2.00;;
75935;SDS011;64614;32.062;34.834;2024-03-02T01:34:53;4.63;;;2.13;;
75935;SDS011;64614;32.062;34.834;2024-03-02T01:37:19;3.60;;;1.80;;
75935;SDS011;64614;32.062;34.834;2024-03-02T01:39:45;4.32;;;1.80;;
75935;SDS011;64614;32.062;34.834;2024-03-02T01:42:10;4.70;;;1.98;;
75935;SDS011;64614;32.062;34.834;2024-03-02T01:44:36;4.28;;;2.10;;
75935;SDS011;64614;32.062;34.834;2024-03-02T01:47:02;4.22;;;2.05;;
75935;SDS011;64614;32.062;34.834;2024-03-02T01:49:27;5.05;;;2.10;;
75935;SDS011;64614;32.062;34.834;2024-03-02T01:51:53;6.80;;;2.05;;
75935;SDS011;64614;32.062;34.834;2024-03-02T01:54:19;6.75;;;2.13;;
75935;SDS011;64614;32.062;34.834;2024-03-02T01:56:45;5.50;;;2.35;;
75935;SDS011;64614;32.062;34.834;2024-03-02T01:59:11;6.65;;;2.30;;
75935;SDS011;64614;32.062;34.834;2024-03-02T02:01:38;4.88;;;2.05;;
75935;SDS011;64614;32.062;34.834;2024-03-02T02:04:04;5.47;;;2.40;;
75935;SDS011;64614;32.062;34.834;2024-03-02T02:06:31;5.05;;;2.13;;
75935;SDS011;64614;32.062;34.834;2024-03-02T02:08:57;5.57;;;2.22;;
75935;SDS011;64614;32.062;34.834;2024-03-02T02:11:24;5.55;;;2.20;;
75935;SDS011;64614;32.062;34.834;2024-03-02T02:13:50;5.88;;;2.13;;
75935;SDS011;64614;32.062;34.834;2024-03-02T02:16:15;4.63;;;2.10;;
75935;SDS011;64614;32.062;34.834;2024-03-02T02:18:41;5.53;;;2.28;;
75935;SDS011;64614;32.062;34.834;2024-03-02T02:21:07;4.97;;;2.10;;
75935;SDS011;64614;32.062;34.834;2024-03-02T02:23:33;5.38;;;2.20;;
75935;SDS011;64614;32.062;34.834;2024-03-02T02:25:58;5.40;;;2.20;;
75935;SDS011;64614;32.062;34.834;2024-03-02T02:28:24;5.47;;;2.50;;
75935;SDS011;64614;32.062;34.834;2024-03-02T02:30:50;4.65;;;2.40;;
75935;SDS011;64614;32.062;34.834;2024-03-02T02:33:15;5.57;;;2.30;;
75935;SDS011;64614;32.062;34.834;2024-03-02T02:35:41;6.30;;;2.20;;
75935;SDS011;64614;32.062;34.834;2024-03-02T02:38:06;5.68;;;2.60;;
75935;SDS011;64614;32.062;34.834;2024-03-02T02:40:32;5.32;;;2.22;;
75935;SDS011;64614;32.062;34.834;2024-03-02T02:42:58;4.43;;;2.00;;
75935;SDS011;64614;32.062;34.834;2024-03-02T02:45:26;6.25;;;2.40;;
75935;SDS011;64614;32.062;34.834;2024-03-02T02:47:52;6.07;;;2.25;;
75935;SDS011;64614;32.062;34.834;2024-03-02T02:50:18;4.85;;;2.10;;
75935;SDS011;64614;32.062;34.834;2024-03-02T02:52:43;4.47;;;2.15;;
75935;SDS011;64614;32.062;34.834;2024-03-02T02:55:10;5.28;;;1.85;;
75935;SDS011;64614;32.062;34.834;2024-03-02T02:57:37;5.68;;;2.35;;
75935;SDS011;64614;32.062;34.834;2024-03-02T03:00:05;5.82;;;2.25;;
75935;SDS011;64614;32.062;34.834;2024-03-02T03:02:41;5.28;;;2.42;;
75935;SDS011;64614;32.062;34.834;2024-03-02T03:05:08;6.75;;;2.25;;
75935;SDS011;64614;32.062;34.834;2024-03-02T03:07:35;5.95;;;2.30;;
75935;SDS011;64614;32.062;34.834;2024-03-02T03:10:02;7.18;;;2.65;;
75935;SDS011;64614;32.062;34.834;2024-03-02T03:12:29;4.80;;;2.17;;
75935;SDS011;64614;32.062;34.834;2024-03-02T03:14:58;5.20;;;2.20;;
75935;SDS011;64614;32.062;34.834;2024-03-02T03:17:25;4.38;;;1.98;;
75935;SDS011;64614;32.062;34.834;2024-03-02T03:19:52;4.90;;;2.22;;
75935;SDS011;64614;32.062;34.834;2024-03-02T03:22:17;4.80;;;2.28;;
75935;SDS011;64614;32.062;34.834;2024-03-02T03:24:43;5.57;;;2.50;;
75935;SDS011;64614;32.062;34.834;2024-03-02T03:27:09;7.35;;;2.15;;
75935;SDS011;64614;32.062;34.834;2024-03-02T03:29:36;6.80;;;2.75;;
75935;SDS011;64614;32.062;34.834;2024-03-02T03:32:02;5.95;;;2.67;;
75935;SDS011;64614;32.062;34.834;2024-03-02T03:34:28;5.70;;;2.70;;
75935;SDS011;64614;32.062;34.834;2024-03-02T03:36:54;7.55;;;2.50;;
75935;SDS011;64614;32.062;34.834;2024-03-02T03:39:20;6.35;;;2.78;;
75935;SDS011;64614;32.062;34.834;2024-03-02T03:41:46;4.93;;;2.25;;
75935;SDS011;64614;32.062;34.834;2024-03-02T03:44:11;6.43;;;2.55;;
75935;SDS011;64614;32.062;34.834;2024-03-02T03:46:37;6.03;;;2.22;;
75935;SDS011;64614;32.062;34.834;2024-03-02T03:49:03;6.70;;;2.72;;
75935;SDS011;64614;32.062;34.834;2024-03-02T03:51:29;5.65;;;2.50;;
75935;SDS011;64614;32.062;34.834;2024-03-02T03:53:55;5.70;;;2.58;;
75935;SDS011;64614;32.062;34.834;2024-03-02T03:56:21;7.50;;;2.50;;
75935;SDS011;64614;32.062;34.834;2024-03-02T03:58:47;5.93;;;2.10;;
75935;SDS011;64614;32.062;34.834;2024-03-02T04:01:12;6.40;;;2.42;;
75935;SDS011;64614;32.062;34.834;2024-03-02T04:03:39;7.75;;;3.30;;
75935;SDS011;64614;32.062;34.834;2024-03-02T04:06:04;5.47;;;2.28;;
75935;SDS011;64614;32.062;34.834;2024-03-02T04:08:30;6.18;;;2.83;;
75935;SDS011;64614;32.062;34.834;2024-03-02T04:10:56;6.85;;;2.40;;
75935;SDS011;64614;32.062;34.834;2024-03-02T04:13:22;7.25;;;2.17;;
75935;SDS011;64614;32.062;34.834;2024-03-02T04:15:47;5.68;;;2.25;;
75935;SDS011;64614;32.062;34.834;2024-03-02T04:18:13;7.53;;;2.42;;
75935;SDS011;64614;32.062;34.834;2024-03-02T04:20:39;7.50;;;2.65;;
75935;SDS011;64614;32.062;34.834;2024-03-02T04:23:04;5.00;;;2.25;;
75935;SDS011;64614;32.062;34.834;2024-03-02T04:25:30;7.05;;;2.50;;
75935;SDS011;64614;32.062;34.834;2024-03-02T04:27:56;5.78;;;2.50;;
75935;SDS011;64614;32.062;34.834;2024-03-02T04:30:21;6.18;;;2.30;;
75935;SDS011;64614;32.062;34.834;2024-03-02T04:32:47;6.38;;;2.25;;
75935;SDS011;64614;32.062;34.834;2024-03-02T04:35:14;5.95;;;2.33;;
75935;SDS011;64614;32.062;34.834;2024-03-02T04:37:42;6.18;;;2.47;;
75935;SDS011;64614;32.062;34.834;2024-03-02T04:40:09;6.82;;;2.35;;
75935;SDS011;64614;32.062;34.834;2024-03-02T04:42:35;5.43;;;2.40;;
75935;SDS011;64614;32.062;34.834;2024-03-02T04:45:01;5.88;;;2.13;;
75935;SDS011;64614;32.062;34.834;2024-03-02T04:47:27;5.63;;;2.40;;
75935;SDS011;64614;32.062;34.834;2024-03-02T04:49:53;6.07;;;2.85;;
75935;SDS011;64614;32.062;34.834;2024-03-02T04:52:18;6.10;;;2.30;;
75935;SDS011;64614;32.062;34.834;2024-03-02T04:54:44;6.47;;;2.30;;
75935;SDS011;64614;32.062;34.834;2024-03-02T04:57:28;6.60;;;2.53;;
75935;SDS011;64614;32.062;34.834;2024-03-02T04:59:54;6.00;;;2.40;;
75935;SDS011;64614;32.062;34.834;2024-03-02T05:02:19;5.72;;;2.60;;
75935;SDS011;64614;32.062;34.834;2024-03-02T05:04:45;7.85;;;3.50;;
75935;SDS011;64614;32.062;34.834;2024-03-02T05:07:11;9.18;;;3.47;;
75935;SDS011;64614;32.062;34.834;2024-03-02T05:09:36;10.05;;;4.10;;
75935;SDS011;64614;32.062;34.834;2024-03-02T05:12:02;11.98;;;5.13;;
75935;SDS011;64614;32.062;34.834;2024-03-02T05:14:46;10.68;;;4.65;;
75935;SDS011;64614;32.062;34.834;2024-03-02T05:17:11;11.30;;;4.40;;
75935;SDS011;64614;32.062;34.834;2024-03-02T05:19:37;12.98;;;4.65;;
75935;SDS011;64614;32.062;34.834;2024-03-02T05:22:03;10.68;;;4.72;;
75935;SDS011;64614;32.062;34.834;2024-03-02T05:24:29;11.77;;;4.30;;
75935;SDS011;64614;32.062;34.834;2024-03-02T05:26:55;9.52;;;4.72;;
75935;SDS011;64614;32.062;34.834;2024-03-02T05:29:21;10.30;;;4.10;;
75935;SDS011;64614;32.062;34.834;2024-03-02T05:31:46;11.70;;;4.65;;
75935;SDS011;64614;32.062;34.834;2024-03-02T05:34:12;11.20;;;4.28;;
75935;SDS011;64614;32.062;34.834;2024-03-02T05:36:38;12.82;;;4.50;;
75935;SDS011;64614;32.062;34.834;2024-03-02T05:39:07;11.20;;;4.63;;
75935;SDS011;64614;32.062;34.834;2024-03-02T05:41:34;13.65;;;4.90;;
75935;SDS011;64614;32.062;34.834;2024-03-02T05:44:00;11.75;;;4.50;;
75935;SDS011;64614;32.062;34.834;2024-03-02T05:46:28;10.88;;;4.70;;
75935;SDS011;64614;32.062;34.834;2024-03-02T05:48:54;12.98;;;4.22;;
75935;SDS011;64614;32.062;34.834;2024-03-02T05:51:20;11.35;;;4.63;;
75935;SDS011;64614;32.062;34.834;2024-03-02T05:53:46;9.48;;;4.15;;
75935;SDS011;64614;32.062;34.834;2024-03-02T05:56:11;11.15;;;4.32;;
75935;SDS011;64614;32.062;34.834;2024-03-02T05:58:37;10.35;;;4.40;;
75935;SDS011;64614;32.062;34.834;2024-03-02T06:01:15;11.57;;;4.53;;
75935;SDS011;64614;32.062;34.834;2024-03-02T06:03:43;9.70;;;4.07;;
75935;SDS011;64614;32.062;34.834;2024-03-02T06:06:09;10.88;;;4.30;;
75935;SDS011;64614;32.062;34.834;2024-03-02T06:08:35;12.10;;;4.70;;
75935;SDS011;64614;32.062;34.834;2024-03-02T06:11:00;12.57;;;5.25;;
75935;SDS011;64614;32.062;34.834;2024-03-02T06:13:26;10.98;;;4.38;;
75935;SDS011;64614;32.062;34.834;2024-03-02T06:15:52;10.40;;;4.25;;
75935;SDS011;64614;32.062;34.834;2024-03-02T06:18:18;11.63;;;4.85;;
75935;SDS011;64614;32.062;34.834;2024-03-02T06:20:43;10.85;;;4.93;;
75935;SDS011;64614;32.062;34.834;2024-03-02T06:23:09;10.75;;;4.95;;
75935;SDS011;64614;32.062;34.834;2024-03-02T06:25:35;11.98;;;4.72;;
75935;SDS011;64614;32.062;34.834;2024-03-02T06:28:00;11.18;;;4.60;;
75935;SDS011;64614;32.062;34.834;2024-03-02T06:30:26;11.63;;;5.28;;
75935;SDS011;64614;32.062;34.834;2024-03-02T06:32:52;10.23;;;4.90;;
75935;SDS011;64614;32.062;34.834;2024-03-02T06:35:17;9.85;;;4.75;;
75935;SDS011;64614;32.062;34.834;2024-03-02T06:37:43;11.18;;;5.05;;
75935;SDS011;64614;32.062;34.834;2024-03-02T06:40:09;11.30;;;4.78;;
75935;SDS011;64614;32.062;34.834;2024-03-02T06:42:50;9.98;;;4.63;;
75935;SDS011;64614;32.062;34.834;2024-03-02T06:45:22;11.32;;;4.95;;
75935;SDS011;64614;32.062;34.834;2024-03-02T06:47:48;9.48;;;4.82;;
75935;SDS011;64614;32.062;34.834;2024-03-02T06:50:13;9.75;;;4.30;;
75935;SDS011;64614;32.062;34.834;2024-03-02T06:52:39;13.30;;;4.65;;
75935;SDS011;64614;32.062;34.834;2024-03-02T07:18:21;9.63;;;4.68;;
75935;SDS011;64614;32.062;34.834;2024-03-02T07:20:47;9.88;;;4.75;;
75935;SDS011;64614;32.062;34.834;2024-03-02T07:23:14;9.35;;;4.32;;
75935;SDS011;64614;32.062;34.834;2024-03-02T07:25:40;12.57;;;4.65;;
75935;SDS011;64614;32.062;34.834;2024-03-02T07:28:06;10.48;;;4.50;;
75935;SDS011;64614;32.062;34.834;2024-03-02T07:30:32;10.05;;;4.72;;
75935;SDS011;64614;32.062;34.834;2024-03-02T07:32:59;9.38;;;4.20;;
75935;SDS011;64614;32.062;34.834;2024-03-02T07:35:25;10.18;;;4.35;;
75935;SDS011;64614;32.062;34.834;2024-03-02T07:37:56;9.05;;;4.00;;
75935;SDS011;64614;32.062;34.834;2024-03-02T07:40:22;9.07;;;3.60;;
75935;SDS011;64614;32.062;34.834;2024-03-02T07:42:48;9.38;;;4.03;;
75935;SDS011;64614;32.062;34.834;2024-03-02T07:45:14;7.38;;;3.22;;
75935;SDS011;64614;32.062;34.834;2024-03-02T07:47:40;8.23;;;3.03;;
75935;SDS011;64614;32.062;34.834;2024-03-02T07:50:06;9.63;;;3.55;;
75935;SDS011;64614;32.062;34.834;2024-03-02T07:52:32;8.40;;;3.58;;
75935;SDS011;64614;32.062;34.834;2024-03-02T07:55:01;7.85;;;3.13;;
75935;SDS011;64614;32.062;34.834;2024-03-02T07:57:26;7.88;;;3.90;;
75935;SDS011;64614;32.062;34.834;2024-03-02T07:59:52;8.45;;;3.20;;
75935;SDS011;64614;32.062;34.834;2024-03-02T08:02:18;8.73;;;3.63;;
75935;SDS011;64614;32.062;34.834;2024-03-02T08:04:46;8.27;;;3.47;;
75935;SDS011;64614;32.062;34.834;2024-03-02T08:14:53;8.70;;;3.72;;
75935;SDS011;64614;32.062;34.834;2024-03-02T08:17:19;10.38;;;4.20;;
75935;SDS011;64614;32.062;34.834;2024-03-02T08:19:45;8.75;;;4.13;;
75935;SDS011;64614;32.062;34.834;2024-03-02T08:22:14;8.25;;;3.63;;
75935;SDS011;64614;32.062;34.834;2024-03-02T08:24:44;9.18;;;3.78;;
75935;SDS011;64614;32.062;34.834;2024-03-02T08:27:10;9.48;;;4.30;;
75935;SDS011;64614;32.062;34.834;2024-03-02T08:29:37;8.38;;;4.13;;
75935;SDS011;64614;32.062;34.834;2024-03-02T08:32:03;9.15;;;4.30;;
75935;SDS011;64614;32.062;34.834;2024-03-02T08:34:30;8.70;;;4.00;;
75935;SDS011;64614;32.062;34.834;2024-03-02T08:36:55;10.55;;;4.47;;
75935;SDS011;64614;32.062;34.834;2024-03-02T08:39:21;9.60;;;4.35;;
75935;SDS011;64614;32.062;34.834;2024-03-02T08:41:47;11.52;;;4.88;;
75935;SDS011;64614;32.062;34.834;2024-03-02T08:44:13;9.02;;;4.90;;
75935;SDS011;64614;32.062;34.834;2024-03-02T08:46:40;8.82;;;5.00;;
75935;SDS011;64614;32.062;34.834;2024-03-02T08:49:06;10.40;;;5.05;;
75935;SDS011;64614;32.062;34.834;2024-03-02T08:51:32;12.30;;;5.45;;
75935;SDS011;64614;32.062;34.834;2024-03-02T08:53:57;12.60;;;5.97;;
75935;SDS011;64614;32.062;34.834;2024-03-02T08:56:24;11.45;;;6.00;;
75935;SDS011;64614;32.062;34.834;2024-03-02T08:58:50;9.40;;;5.28;;
75935;SDS011;64614;32.062;34.834;2024-03-02T09:01:17;11.02;;;5.60;;
75935;SDS011;64614;32.062;34.834;2024-03-02T09:03:44;12.73;;;6.38;;
75935;SDS011;64614;32.062;34.834;2024-03-02T09:06:12;12.18;;;6.38;;
75935;SDS011;64614;32.062;34.834;2024-03-02T09:08:39;15.98;;;6.47;;
75935;SDS011;64614;32.062;34.834;2024-03-02T09:11:05;12.93;;;6.13;;
75935;SDS011;64614;32.062;34.834;2024-03-02T09:13:32;16.85;;;7.93;;
75935;SDS011;64614;32.062;34.834;2024-03-02T09:15:58;14.32;;;7.20;;
75935;SDS011;64614;32.062;34.834;2024-03-02T09:18:24;14.23;;;7.47;;
75935;SDS011;64614;32.062;34.834;2024-03-02T09:20:50;17.85;;;7.95;;
75935;SDS011;64614;32.062;34.834;2024-03-02T09:23:15;13.63;;;7.05;;
75935;SDS011;64614;32.062;34.834;2024-03-02T09:25:41;14.93;;;7.63;;
75935;SDS011;64614;32.062;34.834;2024-03-02T09:28:07;18.27;;;9.55;;
75935;SDS011;64614;32.062;34.834;2024-03-02T09:30:32;58.38;;;33.58;;
75935;SDS011;64614;32.062;34.834;2024-03-02T09:32:58;53.63;;;30.80;;
75935;SDS011;64614;32.062;34.834;2024-03-02T09:35:24;49.45;;;29.85;;
75935;SDS011;64614;32.062;34.834;2024-03-02T09:37:50;46.85;;;21.85;;
75935;SDS011;64614;32.062;34.834;2024-03-02T09:40:16;30.40;;;15.48;;
75935;SDS011;64614;32.062;34.834;2024-03-02T09:42:42;24.88;;;12.35;;
75935;SDS011;64614;32.062;34.834;2024-03-02T09:45:09;27.95;;;15.60;;
75935;SDS011;64614;32.062;34.834;2024-03-02T09:47:35;31.00;;;17.58;;
75935;SDS011;64614;32.062;34.834;2024-03-02T09:50:01;34.53;;;21.10;;
75935;SDS011;64614;32.062;34.834;2024-03-02T09:52:26;35.58;;;21.65;;
75935;SDS011;64614;32.062;34.834;2024-03-02T09:54:52;33.17;;;20.88;;
75935;SDS011;64614;32.062;34.834;2024-03-02T09:57:18;31.35;;;19.65;;
75935;SDS011;64614;32.062;34.834;2024-03-02T09:59:47;26.38;;;16.30;;
75935;SDS011;64614;32.062;34.834;2024-03-02T10:04:38;25.25;;;15.60;;
75935;SDS011;64614;32.062;34.834;2024-03-02T10:09:41;25.08;;;14.20;;
75935;SDS011;64614;32.062;34.834;2024-03-02T10:15:30;25.90;;;15.18;;
75935;SDS011;64614;32.062;34.834;2024-03-02T10:18:00;24.98;;;14.50;;
75935;SDS011;64614;32.062;34.834;2024-03-02T10:22:54;22.70;;;13.80;;
75935;SDS011;64614;32.062;34.834;2024-03-02T10:25:41;21.67;;;11.73;;
75935;SDS011;64614;32.062;34.834;2024-03-02T10:28:07;20.38;;;12.20;;
75935;SDS011;64614;32.062;34.834;2024-03-02T10:30:37;18.40;;;10.75;;
75935;SDS011;64614;32.062;34.834;2024-03-02T10:33:02;21.27;;;11.45;;
75935;SDS011;64614;32.062;34.834;2024-03-02T10:35:30;18.77;;;9.90;;
75935;SDS011;64614;32.062;34.834;2024-03-02T10:37:58;15.52;;;9.80;;
75935;SDS011;64614;32.062;34.834;2024-03-02T10:40:28;16.45;;;9.93;;
75935;SDS011;64614;32.062;34.834;2024-03-02T10:42:55;16.20;;;9.38;;
75935;SDS011;64614;32.062;34.834;2024-03-02T10:45:21;15.15;;;9.88;;
75935;SDS011;64614;32.062;34.834;2024-03-02T10:47:49;13.55;;;9.40;;
75935;SDS011;64614;32.062;34.834;2024-03-02T10:50:16;14.68;;;8.40;;
75935;SDS011;64614;32.062;34.834;2024-03-02T10:52:41;14.85;;;8.48;;
75935;SDS011;64614;32.062;34.834;2024-03-02T13:48:23;9.95;;;4.50;;
75935;SDS011;64614;32.062;34.834;2024-03-02T13:50:51;10.35;;;4.93;;
75935;SDS011;64614;32.062;34.834;2024-03-02T13:53:20;9.07;;;4.18;;
75935;SDS011;64614;32.062;34.834;2024-03-02T13:55:45;8.10;;;4.55;;
75935;SDS011;64614;32.062;34.834;2024-03-02T13:58:11;8.63;;;4.57;;
75935;SDS011;64614;32.062;34.834;2024-03-02T14:00:40;8.35;;;4.40;;
75935;SDS011;64614;32.062;34.834;2024-03-02T14:03:06;9.18;;;4.47;;
75935;SDS011;64614;32.062;34.834;2024-03-02T14:05:32;11.82;;;4.82;;
75935;SDS011;64614;32.062;34.834;2024-03-02T14:07:58;9.88;;;5.30;;
75935;SDS011;64614;32.062;34.834;2024-03-02T14:10:26;13.63;;;4.70;;
75935;SDS011;64614;32.062;34.834;2024-03-02T14:12:53;13.38;;;5.25;;
75935;SDS011;64614;32.062;34.834;2024-03-02T14:15:20;12.90;;;4.80;;
75935;SDS011;64614;32.062;34.834;2024-03-02T14:17:46;12.90;;;4.75;;
75935;SDS011;64614;32.062;34.834;2024-03-02T14:20:12;18.75;;;7.03;;
75935;SDS011;64614;32.062;34.834;2024-03-02T14:22:38;24.83;;;15.48;;
75935;SDS011;64614;32.062;34.834;2024-03-02T14:25:05;26.85;;;18.00;;
75935;SDS011;64614;32.062;34.834;2024-03-02T14:27:31;28.23;;;17.08;;
75935;SDS011;64614;32.062;34.834;2024-03-02T14:29:57;28.08;;;15.77;;
75935;SDS011;64614;32.062;34.834;2024-03-02T14:32:23;21.35;;;14.90;;
75935;SDS011;64614;32.062;34.834;2024-03-02T14:34:48;20.48;;;12.43;;
75935;SDS011;64614;32.062;34.834;2024-03-02T14:37:17;21.70;;;11.80;;
75935;SDS011;64614;32.062;34.834;2024-03-02T14:39:42;18.67;;;10.02;;
75935;SDS011;64614;32.062;34.834;2024-03-02T14:42:08;17.73;;;9.75;;
75935;SDS011;64614;32.062;34.834;2024-03-02T14:44:34;17.02;;;10.13;;
75935;SDS011;64614;32.062;34.834;2024-03-02T14:47:02;14.60;;;7.72;;
75935;SDS011;64614;32.062;34.834;2024-03-02T14:49:32;16.67;;;7.70;;
75935;SDS011;64614;32.062;34.834;2024-03-02T14:52:01;18.23;;;7.35;;
75935;SDS011;64614;32.062;34.834;2024-03-02T14:54:26;15.77;;;8.30;;
75935;SDS011;64614;32.062;34.834;2024-03-02T14:56:52;19.40;;;6.80;;
75935;SDS011;64614;32.062;34.834;2024-03-02T14:59:18;15.75;;;6.38;;
75935;SDS011;64614;32.062;34.834;2024-03-02T15:01:44;14.68;;;6.25;;
75935;SDS011;64614;32.062;34.834;2024-03-02T15:04:11;12.55;;;5.82;;
75935;SDS011;64614;32.062;34.834;2024-03-02T15:06:37;12.35;;;5.75;;
75935;SDS011;64614;32.062;34.834;2024-03-02T15:09:02;11.77;;;5.50;;
75935;SDS011;64614;32.062;34.834;2024-03-02T15:11:28;14.25;;;6.13;;
75935;SDS011;64614;32.062;34.834;2024-03-02T15:13:55;12.07;;;5.30;;
75935;SDS011;64614;32.062;34.834;2024-03-02T15:16:20;13.38;;;5.47;;
75935;SDS011;64614;32.062;34.834;2024-03-02T15:18:46;11.90;;;5.90;;
75935;SDS011;64614;32.062;34.834;2024-03-02T15:21:12;11.10;;;5.05;;
75935;SDS011;64614;32.062;34.834;2024-03-02T15:23:37;11.70;;;5.20;;
75935;SDS011;64614;32.062;34.834;2024-03-02T15:26:03;10.82;;;4.80;;
75935;SDS011;64614;32.062;34.834;2024-03-02T15:28:29;14.93;;;5.43;;
75935;SDS011;64614;32.062;34.834;2024-03-02T15:30:54;16.17;;;5.50;;
75935;SDS011;64614;32.062;34.834;2024-03-02T15:33:20;16.98;;;5.95;;
75935;SDS011;64614;32.062;34.834;2024-03-02T15:35:46;14.00;;;5.30;;
75935;SDS011;64614;32.062;34.834;2024-03-02T15:38:12;13.65;;;5.57;;
75935;SDS011;64614;32.062;34.834;2024-03-02T15:40:40;17.40;;;6.10;;
75935;SDS011;64614;32.062;34.834;2024-03-02T15:43:06;15.15;;;4.65;;
75935;SDS011;64614;32.062;34.834;2024-03-02T15:45:31;17.52;;;5.30;;
75935;SDS011;64614;32.062;34.834;2024-03-02T15:47:59;17.77;;;5.47;;
75935;SDS011;64614;32.062;34.834;2024-03-02T15:50:26;15.50;;;5.40;;
75935;SDS011;64614;32.062;34.834;2024-03-02T15:52:52;15.32;;;5.68;;
75935;SDS011;64614;32.062;34.834;2024-03-02T15:55:17;12.95;;;4.75;;
75935;SDS011;64614;32.062;34.834;2024-03-02T15:57:43;12.65;;;4.80;;
75935;SDS011;64614;32.062;34.834;2024-03-02T16:00:09;10.35;;;4.60;;
75935;SDS011;64614;32.062;34.834;2024-03-02T16:02:36;15.05;;;5.07;;
75935;SDS011;64614;32.062;34.834;2024-03-02T16:05:02;14.88;;;5.28;;
75935;SDS011;64614;32.062;34.834;2024-03-02T16:07:27;12.23;;;4.40;;
75935;SDS011;64614;32.062;34.834;2024-03-02T16:09:53;12.60;;;5.20;;
75935;SDS011;64614;32.062;34.834;2024-03-02T16:12:19;15.07;;;5.40;;
75935;SDS011;64614;32.062;34.834;2024-03-02T16:14:49;13.80;;;4.68;;
75935;SDS011;64614;32.062;34.834;2024-03-02T16:27:45;12.55;;;4.47;;
75935;SDS011;64614;32.062;34.834;2024-03-02T16:30:11;17.08;;;5.13;;
75935;SDS011;64614;32.062;34.834;2024-03-02T16:32:37;13.70;;;4.93;;
75935;SDS011;64614;32.062;34.834;2024-03-02T16:35:03;13.40;;;4.40;;
75935;SDS011;64614;32.062;34.834;2024-03-02T16:37:30;17.30;;;4.68;;
75935;SDS011;64614;32.062;34.834;2024-03-02T16:39:56;10.10;;;4.38;;
75935;SDS011;64614;32.062;34.834;2024-03-02T16:42:21;11.15;;;4.47;;
75935;SDS011;64614;32.062;34.834;2024-03-02T16:44:49;14.48;;;4.20;;
75935;SDS011;64614;32.062;34.834;2024-03-02T16:47:18;12.00;;;4.18;;
75935;SDS011;64614;32.062;34.834;2024-03-02T16:49:44;10.48;;;3.70;;
75935;SDS011;64614;32.062;34.834;2024-03-02T16:52:10;11.25;;;3.88;;
75935;SDS011;64614;32.062;34.834;2024-03-02T16:54:37;11.32;;;4.45;;
75935;SDS011;64614;32.062;34.834;2024-03-02T16:57:03;14.82;;;4.65;;
75935;SDS011;64614;32.062;34.834;2024-03-02T16:59:29;13.38;;;4.53;;
75935;SDS011;64614;32.062;34.834;2024-03-02T17:01:55;13.93;;;4.65;;
75935;SDS011;64614;32.062;34.834;2024-03-02T17:04:20;13.77;;;4.60;;
75935;SDS011;64614;32.062;34.834;2024-03-02T17:06:46;14.50;;;4.90;;
75935;SDS011;64614;32.062;34.834;2024-03-02T17:09:12;15.65;;;4.32;;
75935;SDS011;64614;32.062;34.834;2024-03-02T17:11:38;11.30;;;4.38;;
75935;SDS011;64614;32.062;34.834;2024-03-02T17:14:04;14.23;;;4.80;;
75935;SDS011;64614;32.062;34.834;2024-03-02T17:16:30;13.73;;;4.30;;
75935;SDS011;64614;32.062;34.834;2024-03-02T17:18:56;14.30;;;4.53;;
75935;SDS011;64614;32.062;34.834;2024-03-02T17:21:22;11.98;;;4.32;;
75935;SDS011;64614;32.062;34.834;2024-03-02T17:23:48;15.38;;;4.68;;
75935;SDS011;64614;32.062;34.834;2024-03-02T17:26:13;14.80;;;4.63;;
75935;SDS011;64614;32.062;34.834;2024-03-02T17:28:39;11.60;;;4.20;;
75935;SDS011;64614;32.062;34.834;2024-03-02T17:31:06;14.35;;;4.78;;
75935;SDS011;64614;32.062;34.834;2024-03-02T17:33:32;14.85;;;4.22;;
75935;SDS011;64614;32.062;34.834;2024-03-02T17:35:57;14.93;;;4.72;;
75935;SDS011;64614;32.062;34.834;2024-03-02T17:38:23;14.80;;;4.20;;
75935;SDS011;64614;32.062;34.834;2024-03-02T17:40:48;12.40;;;4.55;;
75935;SDS011;64614;32.062;34.834;2024-03-02T17:43:14;12.70;;;4.40;;
75935;SDS011;64614;32.062;34.834;2024-03-02T17:45:40;14.90;;;4.55;;
75935;SDS011;64614;32.062;34.834;2024-03-02T17:48:06;10.23;;;3.60;;
75935;SDS011;64614;32.062;34.834;2024-03-02T17:50:33;11.88;;;4.03;;
75935;SDS011;64614;32.062;34.834;2024-03-02T17:52:59;9.27;;;3.92;;
75935;SDS011;64614;32.062;34.834;2024-03-02T17:55:25;8.35;;;3.72;;
75935;SDS011;64614;32.062;34.834;2024-03-02T17:57:51;8.52;;;3.50;;
75935;SDS011;64614;32.062;34.834;2024-03-02T18:00:17;9.23;;;3.55;;
75935;SDS011;64614;32.062;34.834;2024-03-02T18:02:43;8.65;;;3.70;;
75935;SDS011;64614;32.062;34.834;2024-03-02T18:05:08;9.10;;;3.60;;
75935;SDS011;64614;32.062;34.834;2024-03-02T18:07:35;10.48;;;3.40;;
75935;SDS011;64614;32.062;34.834;2024-03-02T18:10:02;7.63;;;3.40;;
75935;SDS011;64614;32.062;34.834;2024-03-02T18:12:30;12.05;;;4.00;;
75935;SDS011;64614;32.062;34.834;2024-03-02T18:14:55;8.77;;;3.67;;
75935;SDS011;64614;32.062;34.834;2024-03-02T18:17:21;9.60;;;3.63;;